Portada
METAR-TAF:

METAR-TAF

Aeroports :

Great Barrier Reef Airport

Illa de Hamilton, Austràlia

latitud: 20-21-29S, longitud: 148-57-06E, altitud: 5 m

Observació

L'informe es va fer fa 13 minuts, a les 00:10 UTC
Vent 20 kt del Est, variant entre Est i Sud/Sud-Est
Temperatura 25°C
Humitat 79%
Pressió 1014 hPa
Visibilitat 10 km o més
Cel ennuvolat a una alçada de 3100 ft
Cel ennuvolat a una alçada de 4000 ft
Cel ennuvolat a una alçada de 4600 ft

METAR: YBHM 020010Z AUTO 09020KT 090V150 9999 // BKN031 BKN040 BKN046 25/21 Q1014

Hora: 10:23 (00:23 UTC)

Pronòstic

L'informe es va fer fa 2 hores i 1 minuts, a les 22:22 UTC
Pronòstic vàlid del 02 a les 00 UTC al 02 a les 12 UTC
Vent 14 kt del Est/Sud-Est
Visibilitat 10 km o més
Núvols disperses a una alçada de 2500 ft

TAF: YBHM 012222Z 0200/0212 12014KT 9999 SCT025

Observacions i pronòstics meteorològics de més de 4000 aeroports (METAR i TAF).

Les estacions disponibles són els punts grocs i vermells al mapa.

Posi el ratolí al punt desitjat per veure el nom de l'estació.

Feu clic per veure les observacions i els pronòstics meteorològics.

Per canviar el mapa: feu clic els botons verds amb una creu de color negre per apropar; al botó verd amb un guió per allunyar la imatge; o en les fletxes verdes per a mapes adjacents.


METAR-TAF: